aviador You're here:

CYDF Decoded Metar

DEER LAKE in NL, CANADA
Report Time2018-02-20 03:00:00
UTC Time2018-02-20 03:48:24
Flight Rules vfr VFR
Wind010° at 03 kt
W.Decomp.*RWY 07: 2.4 kt HW 1.8 kt LCW
W.Rank010° ranks 20
Current wind is below 010° avg. (5.1)
Visibility9999 m
Phenomena:N/A
Clouds:Scattered 045 Hf
Broken 170 Hf
Expected CloudBase > 400 ft AGL from Temp-Dew spread
Ceiling17,000 ft
Temp-9°C (ISA -24)
Dew Point-10°C (93% RH)
AAT-13.1°C
QNH1026 hPa
Density Alt-3,310 ft
Elevation72 ft
Report Wrong Elevation
Raw Report
CYDF 200300Z 01003KT 350V090 15SM SCT045 BKN170 M09/M10 A3031 RMK
SC4AC2 SLP267=

Extra information for CYDF:More info

Metar Taf Metar & Taf Last 4 Metars F.Rules Stats Wind Profile Meteogram Temp Stats Airport Information Weather charts Add Link Nearby VenuesMetar ALERT Operation Metar Decoded Social comments